Terminal Aerodrome Forecast
Issued by NWS

Home | Current Version | Previous Version | Text Only | Print | Product List | Glossary On
Versions: 1 2 3 4 5 6 7 8 9 10 11 12 13 14 15 16 17 18 19
324
FTUS43 KLSX 271742
TAFUIN
TAF
KUIN 271742Z 2718/2818 17009KT P6SM SKC
     FM280000 14009KT P6SM SCT030 BKN120
     FM280600 17010KT 6SM BR VCTS BKN010CB
     FM281100 18012KT 6SM BR BKN020
     FM281600 19014G23KT P6SM BKN035=

USA.gov is the U.S. government's official web portal to all federal, state and local government web resources and services.